Time;durP1;ratioP1;P1;durP2;ratioP2;P2;SDS_P1;SDS_P2;PMS_P1;PMS_P2;Temp;Humidity;BMP_temperature;BMP_pressure;BME280_temperature;BME280_humidity;BME280_pressure;Samples;Min_cycle;Max_cycle;Signal;HPM_P1;HPM_P2
2022/05/21 00:00:34;;;;;;;5.97;4.47;;;16.20;91.70;;;;;;5019958;28;20502;-76
2022/05/21 00:03:01;;;;;;;10.43;6.33;;;16.20;91.70;;;;;;5023992;28;20931;-73
2022/05/21 00:05:30;;;;;;;8.00;6.20;;;16.20;91.80;;;;;;5018023;28;20487;-74
2022/05/21 00:07:57;;;;;;;8.07;4.80;;;16.10;91.70;;;;;;5017695;28;20502;-77
2022/05/21 00:10:25;;;;;;;14.07;4.47;;;16.10;91.90;;;;;;5022587;28;20898;-77
2022/05/21 00:12:52;;;;;;;6.87;5.50;;;16.00;91.90;;;;;;5021545;28;20852;-72
2022/05/21 00:15:24;;;;;;;5.67;5.07;;;16.00;92.10;;;;;;5020689;28;20480;-73
2022/05/21 00:17:51;;;;;;;35.17;6.87;;;16.00;92.40;;;;;;5024272;28;20861;-74
2022/05/21 00:23:10;;;;;;;31.37;6.80;;;15.80;92.20;;;;;;5021447;28;20832;-72
2022/05/21 00:25:37;;;;;;;5.87;4.90;;;15.80;92.10;;;;;;5014940;28;20587;-71
2022/05/21 00:28:03;;;;;;;7.13;6.00;;;15.70;92.00;;;;;;5022100;28;20480;-75
2022/05/21 00:30:32;;;;;;;15.90;5.53;;;15.70;92.00;;;;;;5018607;28;20480;-75
2022/05/21 00:32:58;;;;;;;9.63;6.33;;;15.70;92.20;;;;;;5019612;28;21031;-72
2022/05/21 00:35:25;;;;;;;10.03;8.90;;;15.80;92.30;;;;;;5015886;28;21051;-73
2022/05/21 00:37:52;;;;;;;15.87;6.37;;;15.70;92.30;;;;;;5021594;28;20479;-73
2022/05/21 00:40:19;;;;;;;7.00;6.13;;;15.70;92.30;;;;;;5020451;28;20480;-77
2022/05/21 00:42:46;;;;;;;5.23;4.10;;;15.80;92.40;;;;;;5019729;28;20488;-73
2022/05/21 00:45:14;;;;;;;15.87;6.90;;;15.70;92.30;;;;;;5016248;28;20465;-75
2022/05/21 00:47:42;;;;;;;5.27;4.73;;;15.70;92.30;;;;;;5016146;28;20476;-74
2022/05/21 00:50:12;;;;;;;8.77;6.40;;;15.70;92.30;;;;;;5018506;28;20498;-78
2022/05/21 00:52:40;;;;;;;12.87;4.90;;;15.60;92.40;;;;;;5016564;28;20861;-74
2022/05/21 00:55:12;;;;;;;10.97;7.23;;;15.60;92.40;;;;;;5022329;28;20523;-76
2022/05/21 00:57:43;;;;;;;14.50;5.40;;;15.60;92.30;;;;;;5022978;28;20465;-77
2022/05/21 01:00:13;;;;;;;6.80;5.40;;;15.60;92.40;;;;;;5035493;28;21063;-75
2022/05/21 01:02:47;;;;;;;5.97;5.13;;;15.60;92.50;;;;;;5024489;28;20476;-77
2022/05/21 01:05:16;;;;;;;13.70;6.37;;;15.50;92.50;;;;;;5017140;28;20490;-76
2022/05/21 01:07:45;;;;;;;7.03;5.50;;;15.50;92.60;;;;;;5023011;28;20491;-73
2022/05/21 01:10:16;;;;;;;10.60;8.30;;;15.50;92.70;;;;;;5024208;28;20475;-77
2022/05/21 01:12:47;;;;;;;6.57;5.97;;;15.50;92.60;;;;;;5020777;28;20897;-76
2022/05/21 01:15:18;;;;;;;10.93;8.87;;;15.50;92.60;;;;;;5015469;28;20488;-76
2022/05/21 01:17:47;;;;;;;17.00;5.70;;;15.50;92.60;;;;;;5021380;28;20570;-75
2022/05/21 01:20:18;;;;;;;11.10;8.40;;;15.50;92.70;;;;;;5029830;28;21961;-73
2022/05/21 01:22:48;;;;;;;10.33;6.33;;;15.40;92.60;;;;;;5027635;28;20837;-77
2022/05/21 01:25:17;;;;;;;11.20;9.27;;;15.30;92.80;;;;;;5028264;28;20553;-76
2022/05/21 01:27:45;;;;;;;8.83;6.07;;;15.30;92.90;;;;;;5023489;28;20483;-74
2022/05/21 01:30:17;;;;;;;19.90;8.40;;;12.80;91.90;;;;;;5017839;28;20481;-75
2022/05/21 01:32:46;;;;;;;7.80;7.00;;;15.10;93.30;;;;;;5029384;28;21015;-75
2022/05/21 01:35:13;;;;;;;12.07;10.53;;;15.10;93.30;;;;;;5024510;28;20478;-77
2022/05/21 01:37:41;;;;;;;13.17;7.43;;;15.90;93.80;;;;;;5029532;28;20479;-76
2022/05/21 01:40:10;;;;;;;11.60;9.77;;;15.00;93.70;;;;;;5020805;28;20535;-74
2022/05/21 01:42:37;;;;;;;11.63;8.17;;;15.00;93.50;;;;;;5022060;28;20472;-75
2022/05/21 01:45:05;;;;;;;23.50;9.43;;;15.10;93.30;;;;;;5023544;28;20484;-74
2022/05/21 01:47:32;;;;;;;14.33;7.50;;;15.20;93.10;;;;;;5021602;28;20562;-73
2022/05/21 01:49:59;;;;;;;13.27;10.47;;;15.20;93.10;;;;;;5021219;28;20473;-74
2022/05/21 01:52:26;;;;;;;19.17;8.50;;;15.10;93.00;;;;;;5026832;28;20989;-75
2022/05/21 01:54:53;;;;;;;15.07;11.37;;;15.00;93.20;;;;;;5023735;28;20494;-77
2022/05/21 01:57:22;;;;;;;11.90;9.40;;;14.90;93.10;;;;;;5019950;28;20614;-72
2022/05/21 01:59:48;;;;;;;18.80;7.50;;;14.90;93.30;;;;;;5018307;28;21032;-76
2022/05/21 02:02:15;;;;;;;10.90;9.10;;;14.70;93.50;;;;;;5027469;28;20985;-75
2022/05/21 02:04:42;;;;;;;14.07;7.40;;;14.50;94.00;;;;;;5024257;28;22883;-75
2022/05/21 02:07:09;;;;;;;22.40;10.70;;;14.30;94.40;;;;;;5012952;28;20495;-74
2022/05/21 02:09:36;;;;;;;12.90;9.40;;;14.20;95.00;;;;;;5030233;28;20480;-74
2022/05/21 02:12:03;;;;;;;18.80;12.17;;;14.10;95.40;;;;;;5023189;28;20483;-75
2022/05/21 02:14:31;;;;;;;19.83;9.00;;;13.90;95.80;;;;;;5030267;28;20753;-74
2022/05/21 02:16:58;;;;;;;18.77;13.93;;;14.00;95.90;;;;;;5025621;28;20483;-75
2022/05/21 02:19:25;;;;;;;16.63;10.40;;;14.00;95.80;;;;;;5025199;28;20478;-74
2022/05/21 02:21:51;;;;;;;18.47;10.70;;;14.20;95.80;;;;;;5024947;28;20743;-75
2022/05/21 02:24:18;;;;;;;11.73;8.87;;;14.20;95.70;;;;;;5026330;28;20467;-75
2022/05/21 02:26:45;;;;;;;12.10;9.30;;;14.20;95.80;;;;;;5023802;28;21020;-75
2022/05/21 02:29:11;;;;;;;20.80;7.80;;;14.20;95.80;;;;;;5028164;28;20479;-74
2022/05/21 02:31:39;;;;;;;17.80;9.00;;;14.30;95.70;;;;;;5032956;28;20532;-75
2022/05/21 02:34:06;;;;;;;18.77;12.03;;;14.30;95.70;;;;;;5019289;28;20479;-75
2022/05/21 02:39:28;;;;;;;17.00;11.73;;;14.40;95.40;;;;;;5010873;28;20509;-73
2022/05/21 02:41:56;;;;;;;13.47;9.47;;;14.20;95.80;;;;;;5027535;28;20468;-73
2022/05/21 02:44:23;;;;;;;12.13;10.03;;;14.10;96.00;;;;;;5024313;28;20483;-73
2022/05/21 02:46:51;;;;;;;12.17;10.37;;;15.90;97.30;;;;;;5022532;28;21050;-73
2022/05/21 02:49:18;;;;;;;17.00;12.03;;;13.80;96.40;;;;;;5015613;28;20929;-73
2022/05/21 02:51:44;;;;;;;13.27;8.83;;;13.70;96.90;;;;;;5021408;28;20483;-73
2022/05/21 02:54:14;;;;;;;15.20;10.17;;;13.70;96.90;;;;;;5013696;28;20874;-76
2022/05/21 02:56:44;;;;;;;11.37;8.97;;;13.60;96.90;;;;;;5016282;28;20948;-74
2022/05/21 02:59:11;;;;;;;16.70;12.20;;;13.70;96.90;;;;;;5027502;28;20573;-75
2022/05/21 03:01:38;;;;;;;12.87;9.93;;;13.50;97.20;;;;;;5025536;28;20478;-74
2022/05/21 03:04:08;;;;;;;18.90;14.10;;;13.50;97.20;;;;;;5024156;28;20575;-73
2022/05/21 03:06:35;;;;;;;12.80;8.77;;;13.60;96.90;;;;;;5006476;28;20514;-74
2022/05/21 03:11:46;;;;;;;13.40;9.80;;;13.70;96.20;;;;;;5025603;28;21022;-76
2022/05/21 03:14:13;;;;;;;14.53;10.70;;;13.80;95.80;;;;;;5017901;28;20491;-76
2022/05/21 03:16:40;;;;;;;14.60;8.40;;;13.80;95.70;;;;;;5016132;28;20645;-74
2022/05/21 03:19:08;;;;;;;14.57;11.23;;;13.70;95.90;;;;;;5020315;28;20488;-75
2022/05/21 03:21:35;;;;;;;17.27;11.53;;;13.50;96.60;;;;;;5008589;28;20483;-75
2022/05/21 03:24:02;;;;;;;23.87;14.83;;;13.30;97.40;;;;;;5033762;28;21668;-74
2022/05/21 03:26:29;;;;;;;17.27;12.70;;;13.20;97.80;;;;;;5018887;28;20475;-73
2022/05/21 03:28:56;;;;;;;18.60;13.23;;;13.20;98.10;;;;;;5024251;28;20977;-74
2022/05/21 03:31:23;;;;;;;20.17;12.83;;;13.30;97.70;;;;;;5019303;28;20493;-74
2022/05/21 03:33:49;;;;;;;22.50;15.37;;;13.20;98.00;;;;;;5023572;28;20487;-74
2022/05/21 03:36:17;;;;;;;21.60;16.87;;;13.20;98.90;;;;;;5018885;28;20486;-75
2022/05/21 03:38:44;;;;;;;23.50;16.03;;;13.20;99.20;;;;;;5018109;28;20490;-77
2022/05/21 03:41:11;;;;;;;20.63;13.80;;;13.20;99.10;;;;;;5022425;28;20489;-74
2022/05/21 03:43:37;;;;;;;21.93;14.63;;;13.10;99.10;;;;;;5026950;28;20486;-74
2022/05/21 03:46:05;;;;;;;28.87;19.30;;;13.10;99.20;;;;;;5021589;28;21139;-77
2022/05/21 03:48:32;;;;;;;26.80;15.10;;;13.10;99.40;;;;;;5018928;28;20494;-77
2022/05/21 03:50:59;;;;;;;23.33;17.60;;;13.10;99.00;;;;;;5028399;28;20473;-76
2022/05/21 03:53:28;;;;;;;22.17;14.23;;;13.10;99.30;;;;;;5037262;28;20845;-77
2022/05/21 03:55:55;;;;;;;26.10;17.33;;;13.20;99.40;;;;;;5041854;28;20544;-78
2022/05/21 03:58:22;;;;;;;51.37;16.30;;;13.10;99.40;;;;;;5028519;28;20493;-74
2022/05/21 04:00:50;;;;;;;17.20;13.80;;;13.10;99.40;;;;;;5012748;28;20756;-76
2022/05/21 04:03:17;;;;;;;19.40;14.20;;;13.10;99.50;;;;;;5033211;28;20490;-74
2022/05/21 04:05:44;;;;;;;31.60;14.90;;;13.00;99.30;;;;;;5034446;28;20540;-75
2022/05/21 04:08:10;;;;;;;21.27;15.60;;;12.90;99.50;;;;;;5037086;28;20482;-77
2022/05/21 04:10:39;;;;;;;24.47;17.33;;;12.90;99.90;;;;;;5039841;28;20489;-76
2022/05/21 04:13:06;;;;;;;33.27;17.70;;;12.90;99.90;;;;;;5037522;28;20491;-77
2022/05/21 04:15:33;;;;;;;23.77;17.20;;;12.90;99.90;;;;;;5037113;28;20500;-75
2022/05/21 04:18:00;;;;;;;27.30;19.87;;;12.90;99.90;;;;;;5040418;28;20486;-76
2022/05/21 04:20:27;;;;;;;30.27;15.40;;;12.80;99.90;;;;;;5038579;28;20489;-76
2022/05/21 04:22:54;;;;;;;18.60;13.60;;;12.80;99.90;;;;;;5040100;28;20500;-77
2022/05/21 04:25:21;;;;;;;23.70;16.80;;;12.90;99.90;;;;;;5037962;28;20494;-75
2022/05/21 04:27:49;;;;;;;33.97;15.97;;;13.00;99.90;;;;;;5035719;28;20486;-76
2022/05/21 04:30:20;;;;;;;18.27;12.87;;;13.00;99.90;;;;;;5036430;28;20491;-77
2022/05/21 04:32:47;;;;;;;18.40;13.87;;;13.00;99.90;;;;;;5039074;28;21019;-76
2022/05/21 04:35:15;;;;;;;27.50;15.47;;;13.10;99.90;;;;;;5032884;28;20508;-77
2022/05/21 04:37:42;;;;;;;18.87;13.97;;;13.20;99.90;;;;;;5038522;28;20490;-75
2022/05/21 04:40:12;;;;;;;21.03;15.47;;;13.20;99.90;;;;;;5038543;28;20470;-77
2022/05/21 04:42:39;;;;;;;25.50;17.07;;;13.30;99.90;;;;;;5028201;28;20489;-75
2022/05/21 04:45:09;;;;;;;31.83;18.83;;;13.30;99.90;;;;;;5035441;28;20512;-76
2022/05/21 04:47:36;;;;;;;36.10;16.67;;;13.30;99.90;;;;;;5036037;28;20873;-77
2022/05/21 04:50:04;;;;;;;34.80;19.83;;;13.40;99.90;;;;;;5037024;28;20826;-76
2022/05/21 04:52:31;;;;;;;23.70;14.83;;;13.40;99.90;;;;;;5035607;28;20489;-76
2022/05/21 04:54:58;;;;;;;23.70;18.20;;;13.40;99.90;;;;;;5037194;28;20512;-74
2022/05/21 04:57:25;;;;;;;27.33;16.23;;;13.40;99.90;;;;;;5033161;28;20486;-76
2022/05/21 04:59:51;;;;;;;26.20;18.77;;;13.40;99.90;;;;;;5037272;28;20492;-75
2022/05/21 05:02:19;;;;;;;29.70;16.80;;;13.40;99.90;;;;;;5038432;28;20963;-75
2022/05/21 05:04:46;;;;;;;24.40;16.53;;;13.40;99.90;;;;;;5037910;28;20489;-74
2022/05/21 05:07:13;;;;;;;22.70;16.13;;;13.50;99.90;;;;;;5035100;28;20506;-75
2022/05/21 05:09:40;;;;;;;18.87;15.43;;;13.50;99.90;;;;;;5037481;28;20682;-77
2022/05/21 05:12:08;;;;;;;22.93;16.83;;;13.60;99.90;;;;;;5033353;28;20987;-77
2022/05/21 05:14:35;;;;;;;16.43;13.97;;;13.60;99.90;;;;;;5040938;28;20488;-76
2022/05/21 05:17:02;;;;;;;21.63;16.30;;;13.70;99.90;;;;;;5035760;28;20478;-74
2022/05/21 05:19:31;;;;;;;12.00;10.70;;;13.60;99.90;;;;;;5038207;28;20486;-76
2022/05/21 05:21:58;;;;;;;16.50;13.00;;;13.70;99.90;;;;;;5034966;28;20491;-75
2022/05/21 05:24:25;;;;;;;21.53;11.10;;;15.60;99.90;;;;;;5037957;28;20482;-74
2022/05/21 05:26:51;;;;;;;16.87;11.37;;;13.80;99.90;;;;;;5034773;28;20492;-73
2022/05/21 05:29:18;;;;;;;11.97;8.73;;;13.80;99.70;;;;;;5029769;28;20994;-74
2022/05/21 05:31:45;;;;;;;37.37;9.70;;;13.90;99.60;;;;;;5038380;28;20480;-74
2022/05/21 05:34:12;;;;;;;12.80;8.10;;;14.00;99.60;;;;;;5039600;28;20508;-76
2022/05/21 05:36:41;;;;;;;13.13;8.40;;;14.10;99.80;;;;;;5037282;28;20490;-74
2022/05/21 05:39:07;;;;;;;13.30;9.40;;;14.30;99.40;;;;;;5035051;28;20478;-75
2022/05/21 05:41:38;;;;;;;10.83;7.60;;;14.40;99.00;;;;;;5038973;28;20490;-76
2022/05/21 05:44:06;;;;;;;16.03;9.07;;;14.60;99.20;;;;;;5033164;28;21251;-73
2022/05/21 05:46:33;;;;;;;14.63;6.40;;;14.60;98.60;;;;;;5034500;28;20481;-75
2022/05/21 05:49:00;;;;;;;18.20;11.53;;;14.70;98.40;;;;;;5040690;28;20552;-76
2022/05/21 05:51:27;;;;;;;9.70;6.17;;;14.70;98.30;;;;;;5042441;28;20537;-73
2022/05/21 05:53:55;;;;;;;21.27;8.57;;;14.80;98.40;;;;;;5042362;28;20578;-76
2022/05/21 05:56:22;;;;;;;11.67;6.40;;;15.00;98.00;;;;;;5040738;28;21017;-75
2022/05/21 06:01:34;;;;;;;5.27;4.73;;;15.20;97.00;;;;;;5040392;28;20477;-75
2022/05/21 06:04:01;;;;;;;13.50;9.20;;;15.20;97.00;;;;;;5040356;28;20477;-75
2022/05/21 06:06:28;;;;;;;31.77;7.47;;;15.20;96.80;;;;;;5055738;28;21127;-77
2022/05/21 06:08:56;;;;;;;16.17;10.87;;;15.20;96.80;;;;;;5061032;28;20570;-75
2022/05/21 06:11:24;;;;;;;8.00;7.27;;;15.20;96.80;;;;;;5058658;28;20534;-78
2022/05/21 06:13:50;;;;;;;18.50;7.87;;;15.30;96.90;;;;;;5062989;28;20486;-74
2022/05/21 06:16:17;;;;;;;12.83;6.93;;;15.40;96.90;;;;;;5059494;28;20524;-73
2022/05/21 06:18:44;;;;;;;11.00;7.20;;;15.40;96.40;;;;;;5060020;28;20481;-75
2022/05/21 06:21:11;;;;;;;15.40;5.90;;;15.60;96.40;;;;;;5060252;28;20489;-77
2022/05/21 06:23:39;;;;;;;11.77;7.10;;;15.70;96.20;;;;;;5058183;28;20482;-73
2022/05/21 06:26:09;;;;;;;10.90;8.40;;;15.70;95.40;;;;;;5058698;28;20481;-76
2022/05/21 06:28:35;;;;;;;19.03;6.60;;;15.70;95.80;;;;;;5049088;28;20474;-78
2022/05/21 06:31:02;;;;;;;12.27;9.37;;;15.90;95.50;;;;;;5061241;28;20483;-71
2022/05/21 06:33:31;;;;;;;11.97;8.07;;;15.90;95.30;;;;;;5061130;28;21337;-75
2022/05/21 06:36:06;;;;;;;20.03;10.10;;;16.00;95.10;;;;;;5056873;28;20483;-75
2022/05/21 06:38:34;;;;;;;8.80;7.40;;;16.10;94.90;;;;;;5058321;28;21211;-74
2022/05/21 06:41:01;;;;;;;18.80;9.57;;;16.20;94.80;;;;;;5061508;28;20539;-72
2022/05/21 06:43:29;;;;;;;6.97;5.93;;;16.20;94.60;;;;;;5061721;28;20494;-73
2022/05/21 06:45:56;;;;;;;15.60;9.20;;;16.30;94.90;;;;;;5059697;28;21311;-73
2022/05/21 06:48:22;;;;;;;7.70;6.73;;;16.40;94.40;;;;;;5053513;28;20485;-73
2022/05/21 06:50:49;;;;;;;8.37;6.53;;;16.50;93.80;;;;;;5059195;28;20479;-76
2022/05/21 06:53:16;;;;;;;7.43;4.93;;;16.60;94.60;;;;;;5058949;28;20532;-73
2022/05/21 06:55:43;;;;;;;7.03;5.30;;;16.70;93.90;;;;;;5052990;28;20490;-75
2022/05/21 06:58:11;;;;;;;7.37;5.63;;;16.70;93.10;;;;;;5049473;28;20486;-74
2022/05/21 07:00:39;;;;;;;6.30;4.87;;;16.80;93.30;;;;;;5061253;28;20479;-75
2022/05/21 07:03:06;;;;;;;25.97;9.43;;;16.80;93.80;;;;;;5059638;28;20485;-75
2022/05/21 07:08:20;;;;;;;9.23;5.50;;;17.00;91.50;;;;;;5051521;28;20475;-78
2022/05/21 07:10:48;;;;;;;10.10;5.93;;;17.00;92.30;;;;;;5039216;28;20492;-71
2022/05/21 07:13:16;;;;;;;6.20;5.60;;;17.10;93.10;;;;;;5042255;28;20480;-73
2022/05/21 07:15:47;;;;;;;14.63;5.13;;;17.40;93.70;;;;;;5041867;28;21113;-71
2022/05/21 07:18:17;;;;;;;8.90;6.20;;;17.40;92.50;;;;;;5040966;28;21200;-72
2022/05/21 07:20:44;;;;;;;9.20;5.17;;;17.30;92.20;;;;;;5039074;28;20476;-75
2022/05/21 07:23:11;;;;;;;15.57;5.20;;;17.60;92.70;;;;;;5039231;28;20483;-73
2022/05/21 07:25:39;;;;;;;6.17;5.57;;;17.70;92.70;;;;;;5037890;28;20480;-73
2022/05/21 07:28:07;;;;;;;10.30;7.60;;;17.60;91.60;;;;;;5039150;28;20476;-74
2022/05/21 07:30:35;;;;;;;18.70;5.60;;;17.70;91.60;;;;;;5040550;28;20869;-75
2022/05/21 07:33:04;;;;;;;17.87;9.10;;;17.80;91.70;;;;;;5040533;28;21015;-74
2022/05/21 07:35:31;;;;;;;10.77;7.00;;;;;;;;;;5038231;28;20490;-74
2022/05/21 07:37:58;;;;;;;20.27;6.87;;;18.00;92.40;;;;;;5041189;28;20595;-75
2022/05/21 07:40:25;;;;;;;7.10;5.07;;;18.20;91.60;;;;;;5039452;28;20914;-74
2022/05/21 07:42:52;;;;;;;7.03;5.60;;;18.20;90.90;;;;;;5039202;28;20579;-77
2022/05/21 07:45:20;;;;;;;7.90;6.40;;;18.30;90.60;;;;;;5038719;28;21018;-73
2022/05/21 07:47:48;;;;;;;4.73;4.33;;;18.40;91.00;;;;;;5035442;28;20484;-70
2022/05/21 07:50:16;;;;;;;7.60;4.10;;;18.50;90.20;;;;;;5038616;28;20480;-74
2022/05/21 07:52:44;;;;;;;9.43;4.97;;;18.60;89.50;;;;;;5040166;28;20476;-72
2022/05/21 07:55:12;;;;;;;5.80;5.30;;;18.70;90.10;;;;;;5040257;28;21050;-72
2022/05/21 07:57:39;;;;;;;10.87;4.00;;;18.90;90.70;;;;;;5053715;28;20848;-73
2022/05/21 08:00:08;;;;;;;8.87;5.73;;;18.90;90.20;;;;;;5058499;28;20836;-73
2022/05/21 08:02:35;;;;;;;9.50;4.70;;;18.80;88.80;;;;;;5058602;28;20505;-74
2022/05/21 08:05:02;;;;;;;15.13;7.73;;;18.70;89.10;;;;;;5057052;28;20485;-74
2022/05/21 08:07:30;;;;;;;9.87;5.70;;;18.60;89.80;;;;;;5055931;28;20573;-74
2022/05/21 08:09:57;;;;;;;18.60;9.80;;;18.50;90.00;;;;;;5057752;28;20983;-71
2022/05/21 08:12:23;;;;;;;7.70;5.23;;;18.60;90.60;;;;;;5060096;28;20481;-76
2022/05/21 08:14:50;;;;;;;12.57;6.33;;;18.80;88.70;;;;;;5058198;28;20482;-75
2022/05/21 08:17:17;;;;;;;11.93;5.17;;;18.90;89.30;;;;;;5052660;28;20470;-73
2022/05/21 08:19:43;;;;;;;14.53;3.97;;;19.00;88.60;;;;;;5068873;28;20481;-72
2022/05/21 08:27:43;;;;;;;8.50;4.50;;;;;;;;;;5045925;28;20490;-74
2022/05/21 08:30:10;;;;;;;6.90;5.00;;;19.50;89.30;;;;;;5059371;28;20471;-75
2022/05/21 08:32:37;;;;;;;9.17;6.10;;;19.70;86.30;;;;;;5055174;28;20489;-77
2022/05/21 08:35:05;;;;;;;15.93;7.50;;;19.80;87.50;;;;;;5067639;28;20479;-74
2022/05/21 08:37:33;;;;;;;7.53;4.93;;;20.00;85.70;;;;;;5055681;28;20475;-72
2022/05/21 08:40:01;;;;;;;17.43;9.33;;;19.90;85.60;;;;;;5059445;28;20530;-77
2022/05/21 08:42:34;;;;;;;6.20;3.87;;;19.90;86.90;;;;;;5050313;28;20490;-76
2022/05/21 08:45:10;;;;;;;19.43;8.07;;;20.00;86.10;;;;;;5069626;28;20471;-73
2022/05/21 08:47:38;;;;;;;11.33;4.00;;;20.10;86.20;;;;;;5052437;28;20506;-75
2022/05/21 08:50:09;;;;;;;15.53;7.13;;;20.10;85.60;;;;;;5058253;28;20446;-75
2022/05/21 08:52:42;;;;;;;7.30;4.03;;;20.10;86.20;;;;;;5055676;28;20573;-71
2022/05/21 08:55:14;;;;;;;7.27;4.80;;;20.10;85.80;;;;;;5058211;28;21408;-73
2022/05/21 08:57:45;;;;;;;14.20;4.07;;;20.40;85.60;;;;;;5056846;28;20471;-76
2022/05/21 09:00:15;;;;;;;8.43;4.60;;;20.50;83.40;;;;;;5060470;28;20471;-78
2022/05/21 09:02:42;;;;;;;4.20;3.40;;;;;;;;;;5061783;28;20469;-77
2022/05/21 09:05:13;;;;;;;8.20;5.40;;;20.60;83.80;;;;;;5058620;28;20487;-75
2022/05/21 09:07:50;;;;;;;8.33;4.40;;;20.40;82.50;;;;;;5055816;28;20482;-76
2022/05/21 09:10:35;;;;;;;13.33;3.40;;;20.40;84.20;;;;;;5049253;28;20481;-75
2022/05/21 09:13:11;;;;;;;11.83;6.33;;;20.20;83.40;;;;;;5077310;28;20476;-73
2022/05/21 09:18:23;;;;;;;5.00;3.67;;;20.30;86.00;;;;;;5056878;28;20490;-78
2022/05/21 09:20:58;;;;;;;19.63;5.93;;;20.30;82.70;;;;;;5065763;28;21247;-71
2022/05/21 09:23:25;;;;;;;4.93;4.40;;;20.30;84.70;;;;;;5062091;28;20893;-77
2022/05/21 09:26:06;;;;;;;13.90;5.50;;;20.40;84.40;;;;;;5058149;28;21092;-78
2022/05/21 09:28:37;;;;;;;8.10;3.87;;;20.60;85.10;;;;;;5062390;28;20562;-75
2022/05/21 09:31:06;;;;;;;9.50;6.20;;;20.90;86.00;;;;;;5054719;28;20482;-73
2022/05/21 09:33:35;;;;;;;5.20;3.10;;;20.70;80.10;;;;;;5082486;28;20558;-74
2022/05/21 09:36:02;;;;;;;8.73;6.33;;;20.80;82.60;;;;;;5058835;28;20928;-73
2022/05/21 09:38:31;;;;;;;8.13;4.57;;;21.20;81.80;;;;;;5062021;28;20996;-76
2022/05/21 09:41:10;;;;;;;10.33;6.53;;;21.50;81.50;;;;;;5056843;28;20964;-75
2022/05/21 09:46:26;;;;;;;4.43;3.00;;;21.30;79.40;;;;;;5047419;28;20543;-75
2022/05/21 09:48:54;;;;;;;8.97;6.80;;;;;;;;;;5060679;28;21364;-74
2022/05/21 09:51:26;;;;;;;14.47;5.40;;;21.20;81.10;;;;;;5056235;28;20508;-75
2022/05/21 09:53:54;;;;;;;9.40;5.60;;;21.30;81.50;;;;;;5062837;28;20480;-72
2022/05/21 09:56:23;;;;;;;5.10;2.63;;;21.50;78.20;;;;;;5059645;28;20489;-78
2022/05/21 09:58:52;;;;;;;14.83;6.77;;;21.50;76.30;;;;;;5055237;28;20538;-76
2022/05/21 10:01:36;;;;;;;5.80;2.73;;;21.40;78.80;;;;;;5054960;28;20486;-73
2022/05/21 10:04:14;;;;;;;7.80;5.33;;;21.40;83.90;;;;;;5058701;28;20478;-72
2022/05/21 10:06:44;;;;;;;5.70;2.43;;;21.40;81.80;;;;;;5050609;28;20488;-74
2022/05/21 10:12:07;;;;;;;16.20;7.87;;;21.70;78.50;;;;;;5066214;28;20492;-77
2022/05/21 10:14:43;;;;;;;4.67;2.57;;;21.80;75.90;;;;;;5062542;28;21315;-74
2022/05/21 10:17:19;;;;;;;5.90;3.30;;;21.80;75.60;;;;;;5057123;28;20488;-80
2022/05/21 10:19:54;;;;;;;3.53;2.30;;;21.80;75.60;;;;;;5062189;28;20560;-74
2022/05/21 10:22:31;;;;;;;7.23;3.43;;;22.80;78.10;;;;;;5050032;28;20473;-72
2022/05/21 10:25:06;;;;;;;10.83;6.07;;;22.00;74.80;;;;;;5061795;28;20485;-77
2022/05/21 10:28:12;;;;;;;5.77;3.00;;;22.20;75.70;;;;;;5068006;28;20488;-72
2022/05/21 10:31:08;;;;;;;5.87;2.83;;;22.30;77.60;;;;;;5058486;28;21115;-72
2022/05/21 10:34:03;;;;;;;4.63;2.37;;;22.40;74.50;;;;;;5059444;28;20514;-74
2022/05/21 10:36:43;;;;;;;5.50;3.07;;;22.20;77.50;;;;;;5056943;28;20488;-78
2022/05/21 10:39:34;;;;;;;3.50;2.30;;;22.30;75.00;;;;;;5054364;28;20588;-75
2022/05/21 10:42:16;;;;;;;10.57;6.53;;;22.60;74.90;;;;;;5057562;28;20471;-75
2022/05/21 10:44:58;;;;;;;13.90;2.50;;;22.80;74.70;;;;;;5056604;28;20536;-76
2022/05/21 10:47:35;;;;;;;4.60;3.77;;;23.00;76.50;;;;;;5055360;28;20824;-72
2022/05/21 10:50:21;;;;;;;14.20;4.03;;;23.10;75.00;;;;;;5060138;28;20497;-77
2022/05/21 10:53:16;;;;;;;6.53;3.30;;;23.00;74.10;;;;;;5047789;28;20922;-71
2022/05/21 10:55:55;;;;;;;7.20;3.70;;;24.70;73.20;;;;;;5041212;28;21235;-79
2022/05/21 10:58:44;;;;;;;16.70;2.93;;;23.00;70.70;;;;;;5061561;28;20470;-75
2022/05/21 11:01:17;;;;;;;4.17;2.97;;;23.20;74.10;;;;;;5060415;28;20880;-73
2022/05/21 11:04:01;;;;;;;10.57;2.60;;;23.20;75.00;;;;;;5059377;28;20493;-76
2022/05/21 11:06:46;;;;;;;3.90;3.50;;;23.40;72.60;;;;;;5052477;28;20475;-71
2022/05/21 11:09:20;;;;;;;5.70;2.90;;;23.50;73.70;;;;;;5037402;28;20478;-76
2022/05/21 11:11:58;;;;;;;3.87;2.87;;;23.50;70.50;;;;;;5056725;28;20482;-74
2022/05/21 11:14:31;;;;;;;4.10;2.63;;;23.50;70.70;;;;;;5050368;28;20573;-75
2022/05/21 11:17:21;;;;;;;7.93;5.37;;;23.50;72.00;;;;;;5056163;28;20477;-74
2022/05/21 11:19:53;;;;;;;5.50;3.77;;;23.50;71.30;;;;;;5057349;28;20828;-75
2022/05/21 11:22:25;;;;;;;3.50;2.60;;;23.60;70.70;;;;;;5055037;28;20484;-74
2022/05/21 11:24:58;;;;;;;8.07;4.50;;;23.50;69.00;;;;;;5046406;28;20814;-73
2022/05/21 11:27:29;;;;;;;6.87;4.70;;;23.50;71.00;;;;;;5045575;28;20677;-76
2022/05/21 11:30:01;;;;;;;17.83;5.47;;;23.70;73.40;;;;;;5059338;28;20992;-77
2022/05/21 11:38:22;;;;;;;6.20;3.30;;;24.40;73.80;;;;;;5058280;28;20668;-77
2022/05/21 11:46:50;;;;;;;11.43;3.40;;;24.60;75.30;;;;;;5055342;28;20845;-76
2022/05/21 11:49:38;;;;;;;5.23;2.97;;;24.70;72.20;;;;;;5060136;28;20470;-77
2022/05/21 11:52:48;;;;;;;7.50;3.00;;;24.60;68.00;;;;;;5059097;28;20482;-74
2022/05/21 11:55:18;;;;;;;5.93;5.10;;;24.60;68.60;;;;;;5043726;28;20490;-73
2022/05/21 11:57:47;;;;;;;5.77;2.17;;;24.50;68.60;;;;;;5057968;28;20490;-76
2022/05/21 12:00:49;;;;;;;7.60;5.10;;;24.70;69.80;;;;;;5057385;28;20486;-77
2022/05/21 12:03:24;;;;;;;3.90;2.83;;;24.70;66.70;;;;;;5060808;28;20478;-74
2022/05/21 12:06:23;;;;;;;6.53;4.97;;;24.60;67.40;;;;;;5056063;28;20485;-71
2022/05/21 12:08:50;;;;;;;13.10;4.13;;;24.60;66.30;;;;;;5058888;28;20547;-75
2022/05/21 12:11:43;;;;;;;3.40;2.50;;;24.50;70.10;;;;;;5061090;28;20487;-77
2022/05/21 12:14:28;;;;;;;3.80;2.97;;;24.60;67.20;;;;;;5057649;28;21084;-75
2022/05/21 12:16:57;;;;;;;5.33;3.97;;;;;;;;;;5054003;28;20503;-75
2022/05/21 12:20:06;;;;;;;6.30;2.97;;;24.60;67.10;;;;;;5048576;28;20559;-75
2022/05/21 12:22:37;;;;;;;3.00;2.60;;;24.50;68.70;;;;;;5048502;28;20649;-77
2022/05/21 12:25:04;;;;;;;6.20;4.53;;;24.50;67.30;;;;;;5055328;28;20452;-76
2022/05/21 12:27:32;;;;;;;5.30;4.23;;;24.50;67.40;;;;;;5055587;28;21599;-75
2022/05/21 12:30:00;;;;;;;10.03;5.13;;;24.50;67.30;;;;;;5055692;28;20491;-74
2022/05/21 12:32:29;;;;;;;5.40;3.23;;;24.50;65.30;;;;;;5052015;28;20483;-72
2022/05/21 12:35:23;;;;;;;14.10;3.23;;;24.50;67.70;;;;;;5048202;28;21025;-75
2022/05/21 12:37:57;;;;;;;5.20;3.03;;;24.60;67.10;;;;;;5052761;28;20947;-78
2022/05/21 12:40:29;;;;;;;4.97;2.53;;;24.70;69.80;;;;;;5055979;28;20474;-75
2022/05/21 12:43:01;;;;;;;6.17;5.17;;;24.40;66.10;;;;;;5051677;28;20467;-75
2022/05/21 12:45:36;;;;;;;11.53;4.00;;;24.20;68.10;;;;;;5044860;28;20597;-73
2022/05/21 12:48:07;;;;;;;3.50;2.67;;;24.30;69.70;;;;;;5045208;28;20475;-74
2022/05/21 12:50:35;;;;;;;5.93;3.57;;;24.40;66.90;;;;;;5052728;28;20483;-75
2022/05/21 12:53:04;;;;;;;15.00;11.63;;;24.60;69.90;;;;;;5042974;28;21362;-75
2022/05/21 12:55:33;;;;;;;13.23;9.60;;;24.60;68.30;;;;;;5038781;28;20493;-74
2022/05/21 12:58:17;;;;;;;12.53;6.53;;;24.70;65.80;;;;;;5042619;28;21031;-73
2022/05/21 13:00:51;;;;;;;8.47;3.07;;;24.90;68.70;;;;;;5041724;28;20980;-74
2022/05/21 13:03:19;;;;;;;21.47;4.33;;;25.10;68.30;;;;;;5046631;28;20843;-70
2022/05/21 13:05:53;;;;;;;6.43;3.23;;;25.10;67.60;;;;;;5043038;28;20490;-74
2022/05/21 13:08:23;;;;;;;4.53;3.93;;;25.30;66.30;;;;;;5047481;28;21766;-69
2022/05/21 13:10:59;;;;;;;5.93;3.40;;;25.30;69.30;;;;;;5043448;28;20482;-73
2022/05/21 13:13:29;;;;;;;6.53;5.40;;;25.40;66.90;;;;;;5040927;28;21104;-76
2022/05/21 13:15:58;;;;;;;13.00;4.90;;;25.10;65.60;;;;;;5037351;28;20543;-72
2022/05/21 13:18:36;;;;;;;6.40;4.03;;;25.00;65.00;;;;;;5047306;28;20506;-76
2022/05/21 13:21:13;;;;;;;15.67;6.43;;;24.90;66.50;;;;;;5035370;28;20471;-77
2022/05/21 13:23:58;;;;;;;5.90;3.80;;;25.00;66.30;;;;;;5046634;28;21496;-76
2022/05/21 13:26:28;;;;;;;9.70;3.70;;;25.20;67.00;;;;;;5035938;28;20710;-75
2022/05/21 13:29:15;;;;;;;9.80;7.90;;;25.30;66.20;;;;;;5058455;28;20497;-76
2022/05/21 13:31:42;;;;;;;11.03;3.30;;;25.30;64.90;;;;;;5040838;28;20569;-73
2022/05/21 13:34:15;;;;;;;7.90;4.90;;;25.20;65.30;;;;;;5037983;28;20476;-74
2022/05/21 13:36:48;;;;;;;7.87;3.13;;;25.10;65.60;;;;;;5044979;28;20562;-78